Northeast, Indiana
Current Conditions -  °F | °C
As of 10:53 PM on Thursday 27 Nov 2014 (Local Time) from KBMG Reporting Station
Scattered Clouds Scattered Clouds  
Wind Chill: -10°   Ceiling: Unl
Heat Index: -6°   Visibility: 8mi
Dew Point: -7°   Wind: 6mph
Humidity: 89%   Direction: 290°WNW
Pressure: 30.41"   Gusts: NA
Location:  38.6433°N, 86.4481°W
Report Text: KBMG 280353Z AUTO 29005KT 8SM SCT013 M06/M07 A3041 RMK AO2 SLP308 T10561072
Loading
Personal Weather Stations






























Interactive Weather Map New forecast layout! Learn more

10-Day Weather Forecast

Advertisements
Track Severe Weather on mobile